sensor_id;sensor_type;location;lat;lon;timestamp;pressure;altitude;pressure_sealevel;temperature;humidity
21547;BME280;41275;51.912;4.388;2023-02-22T00:00:25;101529.50;;;13.87;49.86
21547;BME280;41275;51.912;4.388;2023-02-22T00:06:02;101522.00;;;13.84;50.26
21547;BME280;41275;51.912;4.388;2023-02-22T00:11:25;101516.19;;;13.75;49.59
21547;BME280;41275;51.912;4.388;2023-02-22T00:16:46;101518.84;;;13.75;50.19
21547;BME280;41275;51.912;4.388;2023-02-22T00:22:07;101517.47;;;13.72;50.17
21547;BME280;41275;51.912;4.388;2023-02-22T00:27:28;101513.72;;;13.50;50.46
21547;BME280;41275;51.912;4.388;2023-02-22T00:32:50;101522.41;;;13.45;50.18
21547;BME280;41275;51.912;4.388;2023-02-22T00:38:13;101510.94;;;13.33;50.65
21547;BME280;41275;51.912;4.388;2023-02-22T00:43:34;101509.09;;;13.34;50.41
21547;BME280;41275;51.912;4.388;2023-02-22T00:48:55;101502.97;;;13.33;50.30
21547;BME280;41275;51.912;4.388;2023-02-22T00:54:17;101497.66;;;13.45;50.32
21547;BME280;41275;51.912;4.388;2023-02-22T00:59:39;101493.50;;;13.49;50.50
21547;BME280;41275;51.912;4.388;2023-02-22T01:05:01;101496.03;;;13.44;50.02
21547;BME280;41275;51.912;4.388;2023-02-22T01:10:24;101495.69;;;13.40;50.39
21547;BME280;41275;51.912;4.388;2023-02-22T01:15:46;101491.88;;;13.36;50.08
21547;BME280;41275;51.912;4.388;2023-02-22T01:21:07;101487.81;;;13.34;50.43
21547;BME280;41275;51.912;4.388;2023-02-22T01:26:28;101470.34;;;13.26;50.56
21547;BME280;41275;51.912;4.388;2023-02-22T01:31:52;101473.13;;;13.31;50.59
21547;BME280;41275;51.912;4.388;2023-02-22T01:37:14;101461.91;;;13.29;50.66
21547;BME280;41275;51.912;4.388;2023-02-22T01:42:35;101465.31;;;13.18;50.61
21547;BME280;41275;51.912;4.388;2023-02-22T01:48:17;101452.94;;;13.12;51.06
21547;BME280;41275;51.912;4.388;2023-02-22T01:53:46;101450.41;;;13.05;51.00
21547;BME280;41275;51.912;4.388;2023-02-22T01:59:09;101459.16;;;12.94;51.14
21547;BME280;41275;51.912;4.388;2023-02-22T02:04:32;101443.72;;;12.84;51.26
21547;BME280;41275;51.912;4.388;2023-02-22T02:10:02;101440.72;;;12.81;51.47
21547;BME280;41275;51.912;4.388;2023-02-22T02:15:28;101434.63;;;12.92;51.25
21547;BME280;41275;51.912;4.388;2023-02-22T02:38:00;101399.63;;;12.83;51.34
21547;BME280;41275;51.912;4.388;2023-02-22T02:43:38;101398.56;;;12.84;51.29
21547;BME280;41275;51.912;4.388;2023-02-22T02:49:09;101389.31;;;12.75;51.22
21547;BME280;41275;51.912;4.388;2023-02-22T02:54:32;101383.53;;;12.66;51.73
21547;BME280;41275;51.912;4.388;2023-02-22T02:59:54;101376.50;;;12.72;51.77
21547;BME280;41275;51.912;4.388;2023-02-22T03:11:19;101357.97;;;12.53;51.98
21547;BME280;41275;51.912;4.388;2023-02-22T03:17:09;101345.97;;;12.51;51.97
21547;BME280;41275;51.912;4.388;2023-02-22T03:22:51;101332.56;;;12.46;52.20
21547;BME280;41275;51.912;4.388;2023-02-22T03:28:17;101331.66;;;12.52;52.13
21547;BME280;41275;51.912;4.388;2023-02-22T03:33:44;101325.78;;;12.50;52.46
21547;BME280;41275;51.912;4.388;2023-02-22T03:39:09;101318.38;;;12.52;52.35
21547;BME280;41275;51.912;4.388;2023-02-22T03:44:34;101308.09;;;12.56;52.69
21547;BME280;41275;51.912;4.388;2023-02-22T03:50:25;101309.59;;;12.51;52.47
21547;BME280;41275;51.912;4.388;2023-02-22T03:55:47;101291.81;;;12.52;52.79
21547;BME280;41275;51.912;4.388;2023-02-22T04:01:12;101291.09;;;12.45;52.92
21547;BME280;41275;51.912;4.388;2023-02-22T04:06:33;101284.16;;;12.32;52.58
21547;BME280;41275;51.912;4.388;2023-02-22T04:11:55;101275.63;;;12.30;52.89
21547;BME280;41275;51.912;4.388;2023-02-22T04:17:16;101272.09;;;12.18;53.10
21547;BME280;41275;51.912;4.388;2023-02-22T04:22:37;101270.13;;;12.13;52.99
21547;BME280;41275;51.912;4.388;2023-02-22T04:27:58;101259.41;;;12.08;53.49
21547;BME280;41275;51.912;4.388;2023-02-22T04:33:19;101258.38;;;12.21;53.71
21547;BME280;41275;51.912;4.388;2023-02-22T04:38:41;101266.63;;;12.31;53.50
21547;BME280;41275;51.912;4.388;2023-02-22T04:44:03;101247.09;;;12.25;53.85
21547;BME280;41275;51.912;4.388;2023-02-22T04:49:24;101256.53;;;12.21;54.01
21547;BME280;41275;51.912;4.388;2023-02-22T04:54:45;101254.94;;;12.20;54.33
21547;BME280;41275;51.912;4.388;2023-02-22T05:00:07;101264.19;;;12.29;54.11
21547;BME280;41275;51.912;4.388;2023-02-22T05:05:30;101245.75;;;12.35;54.22
21547;BME280;41275;51.912;4.388;2023-02-22T05:10:51;101237.78;;;12.35;54.01
21547;BME280;41275;51.912;4.388;2023-02-22T05:16:12;101232.00;;;12.38;54.20
21547;BME280;41275;51.912;4.388;2023-02-22T05:21:34;101233.03;;;12.37;54.26
21547;BME280;41275;51.912;4.388;2023-02-22T05:26:55;101237.56;;;12.36;54.41
21547;BME280;41275;51.912;4.388;2023-02-22T05:32:16;101229.03;;;12.46;54.35
21547;BME280;41275;51.912;4.388;2023-02-22T05:37:37;101231.56;;;12.41;54.26
21547;BME280;41275;51.912;4.388;2023-02-22T05:42:59;101205.94;;;12.35;54.23
21547;BME280;41275;51.912;4.388;2023-02-22T05:48:22;101188.50;;;12.27;54.16
21547;BME280;41275;51.912;4.388;2023-02-22T05:53:43;101176.13;;;12.21;54.58
21547;BME280;41275;51.912;4.388;2023-02-22T05:59:04;101164.47;;;12.10;54.72
21547;BME280;41275;51.912;4.388;2023-02-22T06:04:25;101170.63;;;12.22;55.02
21547;BME280;41275;51.912;4.388;2023-02-22T06:09:49;101170.63;;;12.22;54.41
21547;BME280;41275;51.912;4.388;2023-02-22T06:15:10;101160.31;;;12.14;54.65
21547;BME280;41275;51.912;4.388;2023-02-22T06:20:31;101176.03;;;12.16;55.03
21547;BME280;41275;51.912;4.388;2023-02-22T06:25:54;101185.38;;;12.18;54.86
21547;BME280;41275;51.912;4.388;2023-02-22T06:31:16;101179.75;;;12.26;54.98
21547;BME280;41275;51.912;4.388;2023-02-22T06:36:37;101155.84;;;12.26;54.67
21547;BME280;41275;51.912;4.388;2023-02-22T06:41:58;101176.97;;;12.33;54.71
21547;BME280;41275;51.912;4.388;2023-02-22T06:47:20;101179.06;;;12.43;54.53
21547;BME280;41275;51.912;4.388;2023-02-22T06:52:42;101168.00;;;12.46;54.85
21547;BME280;41275;51.912;4.388;2023-02-22T06:58:03;101186.78;;;12.56;54.47
21547;BME280;41275;51.912;4.388;2023-02-22T07:03:24;101198.81;;;12.47;54.73
21547;BME280;41275;51.912;4.388;2023-02-22T07:08:46;101183.34;;;12.56;54.54
21547;BME280;41275;51.912;4.388;2023-02-22T07:14:08;101199.16;;;12.50;54.59
21547;BME280;41275;51.912;4.388;2023-02-22T07:19:30;101197.75;;;12.48;54.44
21547;BME280;41275;51.912;4.388;2023-02-22T07:24:51;101201.44;;;12.47;54.30
21547;BME280;41275;51.912;4.388;2023-02-22T07:30:20;101204.81;;;12.54;54.38
21547;BME280;41275;51.912;4.388;2023-02-22T07:35:49;101212.66;;;12.61;54.17
21547;BME280;41275;51.912;4.388;2023-02-22T07:41:11;101205.28;;;12.63;54.20
21547;BME280;41275;51.912;4.388;2023-02-22T07:46:33;101199.38;;;12.61;54.08
21547;BME280;41275;51.912;4.388;2023-02-22T07:51:54;101186.22;;;12.54;53.89
21547;BME280;41275;51.912;4.388;2023-02-22T07:57:15;101180.91;;;12.42;54.25
21547;BME280;41275;51.912;4.388;2023-02-22T08:02:36;101187.38;;;12.35;54.24
21547;BME280;41275;51.912;4.388;2023-02-22T08:07:58;101185.75;;;12.45;54.38
21547;BME280;41275;51.912;4.388;2023-02-22T08:13:20;101164.84;;;12.49;54.29
21547;BME280;41275;51.912;4.388;2023-02-22T08:18:42;101165.34;;;12.46;54.21
21547;BME280;41275;51.912;4.388;2023-02-22T08:24:03;101149.88;;;12.55;54.24
21547;BME280;41275;51.912;4.388;2023-02-22T08:29:24;101142.09;;;12.65;54.06
21547;BME280;41275;51.912;4.388;2023-02-22T08:34:53;101120.50;;;12.85;54.17
21547;BME280;41275;51.912;4.388;2023-02-22T08:40:16;101121.84;;;12.99;53.94
21547;BME280;41275;51.912;4.388;2023-02-22T08:45:38;101133.47;;;13.33;53.52
21547;BME280;41275;51.912;4.388;2023-02-22T08:50:59;101115.88;;;13.32;53.69
21547;BME280;41275;51.912;4.388;2023-02-22T08:56:20;101108.03;;;13.37;53.21
21547;BME280;41275;51.912;4.388;2023-02-22T09:01:43;101106.59;;;13.46;53.64
21547;BME280;41275;51.912;4.388;2023-02-22T09:07:04;101126.47;;;13.72;53.18
21547;BME280;41275;51.912;4.388;2023-02-22T09:12:25;101133.84;;;13.99;52.64
21547;BME280;41275;51.912;4.388;2023-02-22T09:17:47;101140.75;;;14.17;52.15
21547;BME280;41275;51.912;4.388;2023-02-22T09:23:09;101156.31;;;14.42;51.64
21547;BME280;41275;51.912;4.388;2023-02-22T09:28:30;101147.78;;;14.57;51.09
21547;BME280;41275;51.912;4.388;2023-02-22T09:33:51;101159.66;;;14.66;50.16
21547;BME280;41275;51.912;4.388;2023-02-22T09:39:16;101168.09;;;14.46;50.13
21547;BME280;41275;51.912;4.388;2023-02-22T09:44:45;101143.31;;;14.45;49.66
21547;BME280;41275;51.912;4.388;2023-02-22T09:50:11;101134.06;;;14.48;49.48
21547;BME280;41275;51.912;4.388;2023-02-22T09:55:50;101132.06;;;14.55;49.71
21547;BME280;41275;51.912;4.388;2023-02-22T10:01:27;101147.28;;;14.60;49.79
21547;BME280;41275;51.912;4.388;2023-02-22T10:07:14;101149.28;;;14.69;49.94
21547;BME280;41275;51.912;4.388;2023-02-22T10:12:54;101158.50;;;14.62;49.75
21547;BME280;41275;51.912;4.388;2023-02-22T10:18:31;101154.22;;;14.61;49.58
21547;BME280;41275;51.912;4.388;2023-02-22T10:29:40;101142.75;;;14.99;49.39
21547;BME280;41275;51.912;4.388;2023-02-22T10:35:08;101142.88;;;15.31;49.34
21547;BME280;41275;51.912;4.388;2023-02-22T10:40:33;101138.63;;;15.57;48.66
21547;BME280;41275;51.912;4.388;2023-02-22T10:46:00;101129.91;;;15.67;48.54
21547;BME280;41275;51.912;4.388;2023-02-22T10:51:22;101126.63;;;15.87;48.10
21547;BME280;41275;51.912;4.388;2023-02-22T10:56:49;101128.00;;;15.89;47.42
21547;BME280;41275;51.912;4.388;2023-02-22T11:07:35;101105.38;;;15.97;47.33
21547;BME280;41275;51.912;4.388;2023-02-22T11:12:57;101108.88;;;16.03;47.14
21547;BME280;41275;51.912;4.388;2023-02-22T11:18:29;101111.63;;;16.13;47.08
21547;BME280;41275;51.912;4.388;2023-02-22T11:24:00;101110.97;;;16.33;46.78
21547;BME280;41275;51.912;4.388;2023-02-22T11:29:31;101097.97;;;16.47;46.87
21547;BME280;41275;51.912;4.388;2023-02-22T11:35:30;101100.97;;;16.60;46.31
21547;BME280;41275;51.912;4.388;2023-02-22T11:41:20;101093.13;;;16.96;45.78
21547;BME280;41275;51.912;4.388;2023-02-22T11:46:46;101082.78;;;17.15;45.22
21547;BME280;41275;51.912;4.388;2023-02-22T11:52:26;101077.97;;;17.32;44.64
21547;BME280;41275;51.912;4.388;2023-02-22T11:58:12;101072.91;;;17.36;44.19
21547;BME280;41275;51.912;4.388;2023-02-22T12:04:19;101071.06;;;17.47;44.08
21547;BME280;41275;51.912;4.388;2023-02-22T12:09:53;101072.41;;;17.49;43.84
21547;BME280;41275;51.912;4.388;2023-02-22T12:20:59;101067.59;;;17.41;44.15
21547;BME280;41275;51.912;4.388;2023-02-22T12:26:25;101073.72;;;17.36;43.82
21547;BME280;41275;51.912;4.388;2023-02-22T12:31:51;101077.22;;;17.52;43.96
21547;BME280;41275;51.912;4.388;2023-02-22T12:37:22;101080.44;;;17.70;43.90
21547;BME280;41275;51.912;4.388;2023-02-22T12:42:58;101069.22;;;17.78;43.89
21547;BME280;41275;51.912;4.388;2023-02-22T12:54:06;101073.25;;;17.85;43.64
21547;BME280;41275;51.912;4.388;2023-02-22T13:04:56;101065.19;;;17.90;43.35
21547;BME280;41275;51.912;4.388;2023-02-22T13:10:52;101075.38;;;17.94;43.17
21547;BME280;41275;51.912;4.388;2023-02-22T13:22:20;101063.03;;;18.18;43.14
21547;BME280;41275;51.912;4.388;2023-02-22T13:28:02;101068.34;;;18.33;43.08
21547;BME280;41275;51.912;4.388;2023-02-22T13:33:48;101061.66;;;18.31;43.35
21547;BME280;41275;51.912;4.388;2023-02-22T13:45:25;101068.91;;;18.20;43.42
21547;BME280;41275;51.912;4.388;2023-02-22T13:51:02;101067.34;;;17.88;43.77
21547;BME280;41275;51.912;4.388;2023-02-22T13:56:26;101065.75;;;17.93;44.22
21547;BME280;41275;51.912;4.388;2023-02-22T14:01:48;101067.59;;;18.12;44.03
21547;BME280;41275;51.912;4.388;2023-02-22T14:12:47;101072.44;;;17.90;43.61
21547;BME280;41275;51.912;4.388;2023-02-22T14:18:15;101071.63;;;17.79;44.19
21547;BME280;41275;51.912;4.388;2023-02-22T14:34:44;101086.00;;;17.27;45.21
21547;BME280;41275;51.912;4.388;2023-02-22T14:40:22;101095.34;;;17.14;45.59
21547;BME280;41275;51.912;4.388;2023-02-22T14:45:52;101109.97;;;16.97;46.23
21547;BME280;41275;51.912;4.388;2023-02-22T14:51:21;101106.38;;;16.71;46.82
21547;BME280;41275;51.912;4.388;2023-02-22T14:56:57;101113.94;;;16.79;46.89
21547;BME280;41275;51.912;4.388;2023-02-22T15:02:19;101110.97;;;16.80;47.39
21547;BME280;41275;51.912;4.388;2023-02-22T15:07:51;101130.75;;;16.79;47.46
21547;BME280;41275;51.912;4.388;2023-02-22T15:13:33;101124.06;;;16.82;47.92
21547;BME280;41275;51.912;4.388;2023-02-22T15:18:57;101120.84;;;16.75;48.36
21547;BME280;41275;51.912;4.388;2023-02-22T15:24:23;101127.66;;;16.55;48.81
21547;BME280;41275;51.912;4.388;2023-02-22T15:29:45;101133.72;;;16.40;49.21
21547;BME280;41275;51.912;4.388;2023-02-22T15:40:43;101142.53;;;16.04;49.89
21547;BME280;41275;51.912;4.388;2023-02-22T15:46:06;101131.72;;;15.88;50.25
21547;BME280;41275;51.912;4.388;2023-02-22T15:51:28;101140.69;;;15.77;50.41
21547;BME280;41275;51.912;4.388;2023-02-22T15:56:51;101147.44;;;15.85;51.36
21547;BME280;41275;51.912;4.388;2023-02-22T16:02:34;101143.88;;;15.74;50.86
21547;BME280;41275;51.912;4.388;2023-02-22T16:07:57;101136.47;;;15.59;51.29
21547;BME280;41275;51.912;4.388;2023-02-22T16:13:21;101141.88;;;15.64;51.78
21547;BME280;41275;51.912;4.388;2023-02-22T16:18:43;101136.38;;;15.71;51.94
21547;BME280;41275;51.912;4.388;2023-02-22T16:24:04;101141.03;;;15.59;51.96
21547;BME280;41275;51.912;4.388;2023-02-22T16:29:25;101142.59;;;15.55;51.49
21547;BME280;41275;51.912;4.388;2023-02-22T16:34:48;101145.44;;;15.48;52.35
21547;BME280;41275;51.912;4.388;2023-02-22T16:40:29;101153.75;;;15.52;52.44
21547;BME280;41275;51.912;4.388;2023-02-22T16:45:52;101150.09;;;15.58;52.23
21547;BME280;41275;51.912;4.388;2023-02-22T16:51:22;101160.38;;;15.71;52.55
21547;BME280;41275;51.912;4.388;2023-02-22T16:56:44;101166.50;;;15.71;52.67
21547;BME280;41275;51.912;4.388;2023-02-22T17:02:06;101161.72;;;15.68;51.89
21547;BME280;41275;51.912;4.388;2023-02-22T17:07:30;101168.34;;;15.66;52.29
21547;BME280;41275;51.912;4.388;2023-02-22T17:12:51;101169.88;;;15.62;51.86
21547;BME280;41275;51.912;4.388;2023-02-22T17:18:18;101173.69;;;15.66;51.72
21547;BME280;41275;51.912;4.388;2023-02-22T17:23:42;101164.38;;;15.68;51.91
21547;BME280;41275;51.912;4.388;2023-02-22T17:29:05;101174.78;;;15.70;51.75
21547;BME280;41275;51.912;4.388;2023-02-22T17:34:27;101180.47;;;15.79;51.47
21547;BME280;41275;51.912;4.388;2023-02-22T17:39:48;101183.09;;;15.74;51.11
21547;BME280;41275;51.912;4.388;2023-02-22T17:45:12;101195.97;;;15.82;51.34
21547;BME280;41275;51.912;4.388;2023-02-22T17:50:38;101202.31;;;15.76;51.46
21547;BME280;41275;51.912;4.388;2023-02-22T17:56:06;101198.91;;;15.80;51.30
21547;BME280;41275;51.912;4.388;2023-02-22T18:01:30;101209.22;;;15.71;51.44
21547;BME280;41275;51.912;4.388;2023-02-22T18:06:51;101208.66;;;15.69;51.70
21547;BME280;41275;51.912;4.388;2023-02-22T18:12:13;101218.28;;;15.70;51.49
21547;BME280;41275;51.912;4.388;2023-02-22T18:17:36;101218.44;;;15.64;51.20
21547;BME280;41275;51.912;4.388;2023-02-22T18:22:58;101213.22;;;15.52;51.26
21547;BME280;41275;51.912;4.388;2023-02-22T18:28:20;101215.31;;;15.45;51.60
21547;BME280;41275;51.912;4.388;2023-02-22T18:33:43;101214.78;;;15.48;51.71
21547;BME280;41275;51.912;4.388;2023-02-22T18:39:05;101227.13;;;15.54;51.40
21547;BME280;41275;51.912;4.388;2023-02-22T18:44:31;101220.63;;;15.45;51.56
21547;BME280;41275;51.912;4.388;2023-02-22T18:49:52;101227.00;;;15.44;52.06
21547;BME280;41275;51.912;4.388;2023-02-22T18:55:16;101235.25;;;15.42;52.12
21547;BME280;41275;51.912;4.388;2023-02-22T19:00:37;101225.09;;;15.39;52.14
21547;BME280;41275;51.912;4.388;2023-02-22T19:06:03;101228.81;;;15.38;51.92
21547;BME280;41275;51.912;4.388;2023-02-22T19:11:24;101218.09;;;15.33;52.04
21547;BME280;41275;51.912;4.388;2023-02-22T19:16:50;101225.97;;;15.45;51.87
21547;BME280;41275;51.912;4.388;2023-02-22T19:22:12;101223.84;;;15.47;51.85
21547;BME280;41275;51.912;4.388;2023-02-22T19:27:35;101220.38;;;15.46;51.63
21547;BME280;41275;51.912;4.388;2023-02-22T19:32:56;101226.19;;;15.43;51.75
21547;BME280;41275;51.912;4.388;2023-02-22T19:38:17;101224.84;;;15.41;51.72
21547;BME280;41275;51.912;4.388;2023-02-22T19:43:39;101223.97;;;15.35;52.37
21547;BME280;41275;51.912;4.388;2023-02-22T19:49:01;101231.47;;;15.38;52.04
21547;BME280;41275;51.912;4.388;2023-02-22T19:54:22;101236.38;;;15.46;52.26
21547;BME280;41275;51.912;4.388;2023-02-22T19:59:43;101243.44;;;15.58;52.64
21547;BME280;41275;51.912;4.388;2023-02-22T20:05:09;101250.09;;;15.55;52.04
21547;BME280;41275;51.912;4.388;2023-02-22T20:10:33;101252.84;;;15.60;52.84
21547;BME280;41275;51.912;4.388;2023-02-22T20:15:54;101252.69;;;15.50;52.47
21547;BME280;41275;51.912;4.388;2023-02-22T20:21:21;101250.28;;;15.27;52.81
21547;BME280;41275;51.912;4.388;2023-02-22T20:26:44;101247.28;;;15.23;53.37
21547;BME280;41275;51.912;4.388;2023-02-22T20:32:09;101259.66;;;15.29;53.08
21547;BME280;41275;51.912;4.388;2023-02-22T20:37:32;101246.44;;;15.17;53.45
21547;BME280;41275;51.912;4.388;2023-02-22T20:42:54;101259.66;;;15.12;53.40
21547;BME280;41275;51.912;4.388;2023-02-22T20:48:16;101257.31;;;15.16;53.70
21547;BME280;41275;51.912;4.388;2023-02-22T20:53:38;101260.34;;;15.25;54.00
21547;BME280;41275;51.912;4.388;2023-02-22T20:59:02;101274.31;;;15.32;53.56
21547;BME280;41275;51.912;4.388;2023-02-22T21:04:24;101270.19;;;15.41;53.67
21547;BME280;41275;51.912;4.388;2023-02-22T21:09:48;101259.75;;;15.39;53.63
21547;BME280;41275;51.912;4.388;2023-02-22T21:15:09;101265.69;;;15.25;53.70
21547;BME280;41275;51.912;4.388;2023-02-22T21:20:30;101246.84;;;15.09;53.68
21547;BME280;41275;51.912;4.388;2023-02-22T21:25:52;101268.44;;;15.30;53.91
21547;BME280;41275;51.912;4.388;2023-02-22T21:31:13;101264.34;;;15.22;53.64
21547;BME280;41275;51.912;4.388;2023-02-22T21:36:35;101264.03;;;15.18;53.97
21547;BME280;41275;51.912;4.388;2023-02-22T21:41:58;101264.44;;;15.10;53.92
21547;BME280;41275;51.912;4.388;2023-02-22T21:47:20;101279.75;;;15.20;54.00
21547;BME280;41275;51.912;4.388;2023-02-22T21:52:42;101272.09;;;15.23;53.98
21547;BME280;41275;51.912;4.388;2023-02-22T21:58:03;101263.59;;;15.27;53.74
21547;BME280;41275;51.912;4.388;2023-02-22T22:03:25;101270.09;;;15.36;53.96
21547;BME280;41275;51.912;4.388;2023-02-22T22:08:47;101271.22;;;15.40;53.49
21547;BME280;41275;51.912;4.388;2023-02-22T22:14:08;101269.44;;;15.45;53.67
21547;BME280;41275;51.912;4.388;2023-02-22T22:19:35;101271.97;;;15.35;53.46
21547;BME280;41275;51.912;4.388;2023-02-22T22:24:59;101270.47;;;15.22;53.34
21547;BME280;41275;51.912;4.388;2023-02-22T22:30:23;101278.22;;;15.24;53.81
21547;BME280;41275;51.912;4.388;2023-02-22T22:35:44;101278.06;;;15.31;53.45
21547;BME280;41275;51.912;4.388;2023-02-22T22:41:07;101278.06;;;15.31;53.88
21547;BME280;41275;51.912;4.388;2023-02-22T22:46:29;101276.34;;;15.25;53.71
21547;BME280;41275;51.912;4.388;2023-02-22T22:51:50;101273.28;;;15.33;53.47
21547;BME280;41275;51.912;4.388;2023-02-22T22:57:11;101269.47;;;15.29;53.77
21547;BME280;41275;51.912;4.388;2023-02-22T23:02:32;101272.41;;;15.27;54.08
21547;BME280;41275;51.912;4.388;2023-02-22T23:07:55;101275.22;;;15.37;53.91
21547;BME280;41275;51.912;4.388;2023-02-22T23:13:16;101284.75;;;15.33;53.32
21547;BME280;41275;51.912;4.388;2023-02-22T23:18:38;101279.91;;;15.30;53.94
21547;BME280;41275;51.912;4.388;2023-02-22T23:24:04;101284.97;;;15.49;54.01
21547;BME280;41275;51.912;4.388;2023-02-22T23:29:28;101288.44;;;15.49;53.45
21547;BME280;41275;51.912;4.388;2023-02-22T23:34:52;101284.22;;;15.53;53.51
21547;BME280;41275;51.912;4.388;2023-02-22T23:40:14;101282.53;;;15.47;53.71
21547;BME280;41275;51.912;4.388;2023-02-22T23:45:38;101287.53;;;15.43;53.68
21547;BME280;41275;51.912;4.388;2023-02-22T23:51:05;101291.41;;;15.53;53.46
21547;BME280;41275;51.912;4.388;2023-02-22T23:56:29;101287.84;;;15.47;53.58
